createdAt,value
2022-11-19T00:14:08.792Z,12.27
2022-11-19T00:16:36.631Z,23.65
2022-11-19T00:19:04.892Z,11.60
2022-11-19T00:21:32.976Z,18.38
2022-11-19T00:24:00.611Z,17.63
2022-11-19T00:26:28.343Z,15.20
2022-11-19T00:28:56.118Z,20.73
2022-11-19T00:31:24.416Z,11.88
2022-11-19T00:33:54.349Z,16.15
2022-11-19T00:36:23.081Z,17.10
2022-11-19T00:38:51.149Z,16.27
2022-11-19T00:41:19.087Z,12.45
2022-11-19T00:43:46.907Z,11.93
2022-11-19T00:46:29.524Z,12.68
2022-11-19T00:48:59.616Z,14.85
2022-11-19T00:51:31.379Z,16.83
2022-11-19T00:53:59.670Z,12.80
2022-11-19T00:56:27.973Z,12.25
2022-11-19T00:58:56.010Z,14.18
2022-11-19T01:01:25.003Z,11.60
2022-11-19T01:03:52.929Z,13.85
2022-11-19T01:06:22.649Z,16.48
2022-11-19T01:08:51.657Z,11.40
2022-11-19T01:24:17.299Z,6.97
2022-11-19T01:26:46.195Z,12.13
2022-11-19T01:29:14.725Z,17.75
2022-11-19T01:31:42.764Z,9.57
2022-11-19T01:34:10.356Z,10.38
2022-11-19T01:36:37.808Z,8.95
2022-11-19T01:39:05.796Z,10.27
2022-11-19T01:41:33.912Z,17.05
2022-11-19T01:44:07.662Z,18.15
2022-11-19T01:46:38.905Z,18.13
2022-11-19T01:49:14.712Z,12.15
2022-11-19T01:51:51.307Z,9.57
2022-11-19T01:54:31.366Z,13.40
2022-11-19T01:57:03.649Z,10.30
2022-11-19T01:59:32.080Z,11.02
2022-11-19T02:01:59.918Z,14.30
2022-11-19T02:04:28.599Z,14.40
2022-11-19T02:06:57.244Z,12.40
2022-11-19T02:09:27.780Z,11.82
2022-11-19T02:12:21.841Z,14.73
2022-11-19T02:15:40.998Z,14.75
2022-11-19T02:18:24.113Z,15.73
2022-11-19T02:21:16.736Z,12.70
2022-11-19T02:24:40.623Z,11.70
2022-11-19T02:27:14.669Z,11.13
2022-11-19T02:30:07.721Z,19.00
2022-11-19T02:32:50.676Z,13.25
2022-11-19T02:35:30.802Z,12.48
2022-11-19T02:38:53.847Z,14.35
2022-11-19T02:41:57.858Z,12.20
2022-11-19T02:44:51.007Z,10.45
2022-11-19T02:47:22.433Z,13.98
2022-11-19T02:49:53.482Z,13.30
2022-11-19T02:54:49.159Z,8.90
2022-11-19T02:57:16.733Z,17.17
2022-11-19T03:00:22.386Z,11.98
2022-11-19T03:03:20.488Z,15.07
2022-11-19T03:05:53.253Z,10.32
2022-11-19T03:08:23.693Z,17.95
2022-11-19T03:11:10.258Z,13.45
2022-11-19T03:14:14.697Z,17.23
2022-11-19T03:17:06.258Z,13.00
2022-11-19T03:19:47.654Z,11.20
2022-11-19T03:22:31.297Z,18.50
2022-11-19T03:25:16.400Z,7.68
2022-11-19T03:27:47.540Z,14.75
2022-11-19T03:30:17.819Z,12.05
2022-11-19T03:32:54.601Z,17.10
2022-11-19T03:35:29.320Z,11.68
2022-11-19T03:38:04.307Z,18.80
2022-11-19T03:40:33.873Z,13.52
2022-11-19T03:43:05.264Z,17.60
2022-11-19T03:48:04.880Z,14.73
2022-11-19T03:51:08.038Z,11.00
2022-11-19T03:53:35.865Z,9.80
2022-11-19T03:56:07.130Z,11.43
2022-11-19T03:58:40.482Z,15.88
2022-11-19T04:01:09.266Z,14.75
2022-11-19T04:03:37.210Z,15.63
2022-11-19T04:06:07.137Z,17.83
2022-11-19T04:08:34.802Z,14.32
2022-11-19T04:13:28.660Z,12.95
2022-11-19T04:15:56.292Z,15.20
2022-11-19T04:18:23.736Z,13.82
2022-11-19T04:20:51.161Z,12.13
2022-11-19T04:23:18.596Z,15.48
2022-11-19T04:25:47.361Z,10.70
2022-11-19T04:28:14.788Z,19.67
2022-11-19T04:30:42.904Z,14.25
2022-11-19T04:33:10.495Z,21.83
2022-11-19T04:35:38.095Z,16.70
2022-11-19T04:38:05.690Z,14.43
2022-11-19T04:40:33.221Z,17.38
2022-11-19T04:43:01.137Z,15.10
2022-11-19T04:45:28.662Z,10.13
2022-11-19T04:47:56.536Z,20.45
2022-11-19T04:50:24.147Z,9.48
2022-11-19T04:52:51.622Z,12.73
2022-11-19T04:55:19.044Z,19.05
2022-11-19T04:57:46.431Z,9.98
2022-11-19T05:00:14.640Z,17.75
2022-11-19T05:02:42.145Z,10.23
2022-11-19T05:05:10.077Z,18.50
2022-11-19T05:07:37.686Z,9.82
2022-11-19T05:10:05.731Z,12.52
2022-11-19T05:12:33.203Z,16.25
2022-11-19T05:15:00.742Z,11.60
2022-11-19T05:17:28.229Z,12.75
2022-11-19T05:19:56.154Z,13.05
2022-11-19T05:22:23.782Z,16.02
2022-11-19T05:24:51.132Z,12.73
2022-11-19T05:27:18.485Z,11.52
2022-11-19T05:29:45.852Z,9.27
2022-11-19T05:32:13.257Z,11.27
2022-11-19T05:34:40.649Z,15.55
2022-11-19T05:37:08.059Z,17.52
2022-11-19T05:39:35.430Z,16.35
2022-11-19T05:42:02.847Z,17.65
2022-11-19T05:44:30.317Z,14.93
2022-11-19T05:46:59.788Z,15.25
2022-11-19T05:49:27.260Z,14.23
2022-11-19T05:51:54.723Z,13.52
2022-11-19T05:54:22.164Z,11.63
2022-11-19T05:56:49.574Z,16.38
2022-11-19T05:59:17.212Z,11.95
2022-11-19T06:01:45.006Z,8.82
2022-11-19T06:04:12.613Z,17.00
2022-11-19T06:06:40.260Z,18.30
2022-11-19T06:09:08.232Z,13.98
2022-11-19T06:11:47.954Z,12.52
2022-11-19T06:14:17.000Z,14.80
2022-11-19T06:16:44.837Z,13.90
2022-11-19T06:19:12.373Z,12.80
2022-11-19T06:21:39.827Z,12.73
2022-11-19T06:24:07.362Z,14.77
2022-11-19T06:26:34.953Z,11.88
2022-11-19T06:29:02.951Z,13.45
2022-11-19T06:31:30.349Z,16.17
2022-11-19T06:33:57.740Z,19.48
2022-11-19T06:36:27.623Z,9.13
2022-11-19T06:38:55.398Z,11.40
2022-11-19T06:41:22.868Z,14.40
2022-11-19T06:43:50.265Z,18.00
2022-11-19T06:46:17.856Z,13.00
2022-11-19T06:48:45.252Z,14.15
2022-11-19T06:51:12.691Z,11.23
2022-11-19T06:53:40.185Z,13.27
2022-11-19T06:56:08.172Z,13.73
2022-11-19T06:58:35.752Z,12.18
2022-11-19T07:01:03.345Z,10.65
2022-11-19T07:03:31.464Z,9.48
2022-11-19T07:06:02.273Z,13.13
2022-11-19T07:08:33.734Z,13.20
2022-11-19T07:11:02.043Z,14.50
2022-11-19T07:13:49.449Z,13.45
2022-11-19T07:16:16.930Z,12.13
2022-11-19T07:18:44.326Z,14.23
2022-11-19T07:21:11.690Z,14.13
2022-11-19T07:23:39.098Z,12.93
2022-11-19T07:26:06.789Z,14.07
2022-11-19T07:28:37.243Z,9.05
2022-11-19T07:31:06.143Z,9.57
2022-11-19T07:33:36.052Z,13.88
2022-11-19T07:36:03.991Z,17.38
2022-11-19T07:38:36.800Z,20.00
2022-11-19T07:41:24.405Z,16.17
2022-11-19T07:43:52.308Z,14.45
2022-11-19T07:46:20.176Z,15.27
2022-11-19T07:48:47.754Z,14.68
2022-11-19T07:51:15.165Z,14.50
2022-11-19T07:53:42.862Z,13.43
2022-11-19T07:56:10.359Z,14.32
2022-11-19T07:58:37.874Z,9.68
2022-11-19T08:01:10.141Z,14.52
2022-11-19T08:03:37.844Z,18.77
2022-11-19T08:06:06.546Z,13.40
2022-11-19T08:08:34.267Z,10.60
2022-11-19T08:11:06.457Z,16.70
2022-11-19T08:13:34.647Z,13.23
2022-11-19T08:16:04.088Z,12.43
2022-11-19T08:18:32.186Z,9.65
2022-11-19T08:21:12.256Z,12.77
2022-11-19T08:23:39.871Z,9.00
2022-11-19T08:26:07.796Z,14.02
2022-11-19T08:28:35.489Z,10.57
2022-11-19T08:31:09.759Z,14.75
2022-11-19T08:33:37.249Z,11.85
2022-11-19T08:36:05.164Z,13.15
2022-11-19T08:38:38.261Z,17.92
2022-11-19T08:41:24.844Z,12.48
2022-11-19T08:43:52.299Z,15.10
2022-11-19T08:46:20.301Z,15.40
2022-11-19T08:48:48.134Z,17.77
2022-11-19T08:51:16.595Z,12.07
2022-11-19T08:53:44.137Z,10.05
2022-11-19T08:56:15.360Z,11.52
2022-11-19T08:58:45.701Z,16.58
2022-11-19T09:01:15.350Z,9.00
2022-11-19T09:03:43.605Z,15.45
2022-11-19T09:06:12.170Z,12.88
2022-11-19T09:08:40.722Z,8.65
2022-11-19T09:11:11.361Z,12.18
2022-11-19T09:13:39.333Z,16.30
2022-11-19T09:16:08.966Z,15.63
2022-11-19T09:18:40.168Z,12.00
2022-11-19T09:21:10.364Z,8.88
2022-11-19T09:23:38.500Z,9.38
2022-11-19T09:26:15.590Z,11.25
2022-11-19T09:28:44.097Z,10.00
2022-11-19T09:31:14.898Z,12.48
2022-11-19T09:33:44.311Z,12.75
2022-11-19T09:36:13.493Z,7.72
2022-11-19T09:38:41.967Z,8.18
2022-11-19T09:41:21.108Z,13.68
2022-11-19T09:43:54.112Z,17.20
2022-11-19T09:46:43.166Z,14.20
2022-11-19T09:49:24.216Z,12.40
2022-11-19T09:51:57.847Z,10.77
2022-11-19T09:54:26.518Z,10.77
2022-11-19T09:57:00.381Z,16.33
2022-11-19T09:59:38.116Z,15.63
2022-11-19T10:02:22.744Z,13.18
2022-11-19T10:04:51.931Z,15.05
2022-11-19T10:07:40.213Z,18.52
2022-11-19T10:10:19.916Z,10.82
2022-11-19T10:12:47.563Z,16.40
2022-11-19T10:15:19.558Z,13.55
2022-11-19T10:17:53.438Z,10.95
2022-11-19T10:20:23.832Z,11.90
2022-11-19T10:22:57.730Z,15.55
2022-11-19T10:25:33.631Z,17.38
2022-11-19T10:28:13.227Z,19.83
2022-11-19T10:30:46.373Z,9.43
2022-11-19T10:33:27.270Z,12.57
2022-11-19T10:36:19.389Z,8.20
2022-11-19T10:39:11.436Z,12.38
2022-11-19T10:41:41.962Z,10.20
2022-11-19T10:44:40.409Z,13.13
2022-11-19T10:47:22.358Z,15.70
2022-11-19T10:49:54.538Z,10.18
2022-11-19T10:52:27.974Z,12.43
2022-11-19T10:55:17.647Z,11.05
2022-11-19T10:57:46.986Z,11.73
2022-11-19T11:00:15.183Z,12.13
2022-11-19T11:02:50.196Z,16.50
2022-11-19T11:05:18.917Z,11.00
2022-11-19T11:07:50.750Z,10.85
2022-11-19T11:10:30.994Z,10.65
2022-11-19T11:13:33.040Z,9.35
2022-11-19T11:16:09.929Z,9.02
2022-11-19T11:18:40.744Z,13.98
2022-11-19T11:21:31.853Z,10.40
2022-11-19T11:24:02.596Z,9.50
2022-11-19T11:26:32.018Z,11.93
2022-11-19T11:29:05.345Z,10.23
2022-11-19T11:31:40.383Z,13.75
2022-11-19T11:34:15.575Z,8.57
2022-11-19T11:36:44.243Z,15.30
2022-11-19T11:39:28.607Z,10.70
2022-11-19T11:42:06.697Z,8.55
2022-11-19T11:44:37.834Z,11.60
2022-11-19T11:47:14.973Z,11.25
2022-11-19T11:49:48.394Z,10.25
2022-11-19T11:52:22.715Z,12.90
2022-11-19T11:54:57.828Z,8.38
2022-11-19T11:57:30.577Z,15.25
2022-11-19T11:59:58.932Z,15.40
2022-11-19T12:02:33.772Z,11.27
2022-11-19T12:05:07.231Z,11.13
2022-11-19T12:08:07.833Z,12.30
2022-11-19T12:10:59.351Z,12.50
2022-11-19T12:13:40.329Z,14.07
2022-11-19T12:16:31.030Z,10.30
2022-11-19T12:19:09.841Z,12.82
2022-11-19T12:21:52.983Z,11.90
2022-11-19T12:24:31.842Z,10.40
2022-11-19T12:26:59.232Z,17.38
2022-11-19T12:29:29.616Z,11.70
2022-11-19T12:32:34.867Z,6.93
2022-11-19T12:35:14.633Z,8.32
2022-11-19T12:38:02.691Z,8.82
2022-11-19T12:40:51.075Z,10.07
2022-11-19T12:43:34.984Z,10.23
2022-11-19T12:46:14.694Z,9.43
2022-11-19T12:48:48.137Z,14.48
2022-11-19T12:51:52.196Z,10.27
2022-11-19T12:54:35.443Z,10.40
2022-11-19T12:57:28.172Z,10.20
2022-11-19T13:00:14.256Z,9.70
2022-11-19T13:02:52.108Z,12.90
2022-11-19T13:05:56.538Z,8.77
2022-11-19T13:08:40.292Z,7.97
2022-11-19T13:11:19.985Z,10.50
2022-11-19T13:13:52.659Z,16.08
2022-11-19T13:16:22.624Z,6.57
2022-11-19T13:18:52.751Z,7.38
2022-11-19T13:21:40.386Z,12.13
2022-11-19T13:24:26.083Z,8.63
2022-11-19T13:26:57.589Z,13.38
2022-11-19T13:29:41.372Z,8.77
2022-11-19T13:32:22.718Z,9.65
2022-11-19T13:35:13.541Z,12.38
2022-11-19T13:37:45.680Z,11.57
2022-11-19T13:40:22.463Z,8.73
2022-11-19T13:46:11.151Z,11.63
2022-11-19T13:48:47.425Z,8.18
2022-11-19T13:51:31.216Z,11.68
2022-11-19T13:54:03.242Z,14.00
2022-11-19T13:56:43.769Z,10.50
2022-11-19T13:59:32.593Z,11.40
2022-11-19T14:02:18.736Z,15.88
2022-11-19T14:05:04.802Z,13.82
2022-11-19T14:07:33.807Z,13.75
2022-11-19T14:10:13.558Z,11.52
2022-11-19T14:13:05.033Z,12.38
2022-11-19T14:16:05.199Z,10.70
2022-11-19T14:19:00.311Z,10.60
2022-11-19T14:21:46.615Z,18.42
2022-11-19T14:24:45.065Z,13.63
2022-11-19T14:27:26.382Z,8.02
2022-11-19T14:30:02.757Z,7.32
2022-11-19T14:32:33.621Z,8.00
2022-11-19T14:35:01.203Z,10.07
2022-11-19T14:37:28.631Z,6.82
2022-11-19T14:40:09.777Z,12.75
2022-11-19T14:45:24.952Z,9.23
2022-11-19T14:48:04.401Z,7.00
2022-11-19T14:50:31.966Z,7.78
2022-11-19T14:53:01.077Z,7.45
2022-11-19T14:55:34.625Z,10.20
2022-11-19T14:58:04.480Z,8.98
2022-11-19T15:00:34.740Z,6.65
2022-11-19T15:03:06.514Z,10.43
2022-11-19T15:05:39.572Z,8.82
2022-11-19T15:08:19.018Z,8.15
2022-11-19T15:11:06.355Z,7.72
2022-11-19T15:13:39.118Z,9.57
2022-11-19T15:16:20.980Z,10.13
2022-11-19T15:19:12.743Z,8.15
2022-11-19T15:21:49.237Z,9.15
2022-11-19T15:24:53.674Z,12.68
2022-11-19T15:27:53.436Z,8.70
2022-11-19T15:30:24.423Z,9.02
2022-11-19T15:35:27.804Z,9.00
2022-11-19T15:38:05.016Z,12.48
2022-11-19T15:40:34.476Z,11.80
2022-11-19T15:43:23.819Z,9.93
2022-11-19T15:46:13.106Z,8.25
2022-11-19T15:49:01.597Z,10.75
2022-11-19T15:51:32.201Z,11.57
2022-11-19T15:54:05.184Z,9.88
2022-11-19T15:56:43.888Z,7.80
2022-11-19T15:59:13.821Z,10.50
2022-11-19T16:01:42.281Z,13.20
2022-11-19T16:04:16.431Z,11.82
2022-11-19T16:06:48.527Z,12.60
2022-11-19T16:09:23.137Z,14.40
2022-11-19T16:12:10.739Z,12.45
2022-11-19T16:14:56.939Z,16.13
2022-11-19T16:17:32.382Z,12.48
2022-11-19T16:20:03.317Z,10.93
2022-11-19T16:22:41.251Z,16.95
2022-11-19T16:25:18.320Z,13.73
2022-11-19T16:27:46.184Z,13.95
2022-11-19T16:30:21.837Z,14.95
2022-11-19T16:32:50.215Z,11.25
2022-11-19T16:35:24.637Z,17.10
2022-11-19T16:37:54.557Z,24.20
2022-11-19T16:40:23.334Z,23.48
2022-11-19T16:42:55.902Z,22.58
2022-11-19T16:45:29.218Z,31.58
2022-11-19T16:47:58.282Z,28.88
2022-11-19T16:50:29.329Z,24.50
2022-11-19T16:55:24.391Z,16.23
2022-11-19T16:58:16.423Z,18.25
2022-11-19T17:00:49.633Z,12.38
2022-11-19T17:03:23.862Z,18.38
2022-11-19T17:05:52.782Z,17.35
2022-11-19T17:08:34.582Z,13.25
2022-11-19T17:11:41.396Z,16.35
2022-11-19T17:14:31.059Z,19.85
2022-11-19T17:16:58.795Z,35.60
2022-11-19T17:19:27.657Z,32.10
2022-11-19T17:22:17.683Z,26.45
2022-11-19T17:24:46.471Z,21.17
2022-11-19T17:27:30.875Z,20.45
2022-11-19T17:30:03.904Z,21.40
2022-11-19T17:32:45.507Z,15.88
2022-11-19T17:35:48.800Z,18.35
2022-11-19T17:38:30.374Z,16.52
2022-11-19T17:41:05.005Z,15.20
2022-11-19T17:43:53.536Z,18.77
2022-11-19T17:46:23.159Z,19.75
2022-11-19T17:48:51.775Z,17.30
2022-11-19T17:51:24.626Z,19.50
2022-11-19T17:53:52.908Z,14.77
2022-11-19T17:56:22.032Z,17.02
2022-11-19T17:58:49.528Z,18.40
2022-11-19T18:01:17.589Z,18.38
2022-11-19T18:03:45.451Z,17.70
2022-11-19T18:06:15.171Z,18.10
2022-11-19T18:08:43.094Z,20.83
2022-11-19T18:11:17.674Z,22.85
2022-11-19T18:13:47.068Z,16.13
2022-11-19T18:16:17.292Z,21.38
2022-11-19T18:18:45.098Z,21.33
2022-11-19T18:21:15.691Z,19.27
2022-11-19T18:23:44.674Z,24.65
2022-11-19T18:26:14.543Z,21.45
2022-11-19T18:28:44.915Z,18.05
2022-11-19T18:31:21.104Z,25.88
2022-11-19T18:33:49.322Z,27.02
2022-11-19T18:36:18.053Z,21.60
2022-11-19T18:38:45.859Z,25.17
2022-11-19T18:41:15.531Z,23.35
2022-11-19T18:44:01.456Z,26.77
2022-11-19T18:46:29.060Z,19.95
2022-11-19T18:48:56.761Z,22.80
2022-11-19T18:51:25.252Z,22.10
2022-11-19T18:53:52.709Z,25.00
2022-11-19T18:56:20.165Z,20.95
2022-11-19T18:58:47.549Z,36.45
2022-11-19T19:01:16.481Z,26.45
2022-11-19T19:03:44.717Z,43.30
2022-11-19T19:06:12.427Z,20.80
2022-11-19T19:08:39.863Z,32.50
2022-11-19T19:11:27.598Z,27.75
2022-11-19T19:13:55.031Z,24.88
2022-11-19T19:16:22.935Z,27.00
2022-11-19T19:18:50.488Z,18.27
2022-11-19T19:21:20.149Z,30.30
2022-11-19T19:23:48.232Z,21.05
2022-11-19T19:26:17.748Z,24.70
2022-11-19T19:28:50.182Z,26.52
2022-11-19T19:31:18.940Z,29.00
2022-11-19T19:33:46.440Z,23.98
2022-11-19T19:36:15.217Z,26.02
2022-11-19T19:38:43.099Z,22.25
2022-11-19T19:41:14.776Z,28.00
2022-11-19T19:43:42.328Z,23.15
2022-11-19T19:46:16.414Z,24.23
2022-11-19T19:48:49.501Z,30.63
2022-11-19T19:51:17.862Z,28.63
2022-11-19T19:54:08.679Z,23.35
2022-11-19T19:56:36.846Z,19.58
2022-11-19T19:59:05.358Z,28.73
2022-11-19T20:01:36.031Z,25.33
2022-11-19T20:04:12.055Z,20.77
2022-11-19T20:06:54.665Z,19.02
2022-11-19T20:09:23.998Z,24.50
2022-11-19T20:11:56.695Z,21.77
2022-11-19T20:15:03.048Z,21.17
2022-11-19T20:17:34.008Z,26.02
2022-11-19T20:20:02.041Z,19.90
2022-11-19T20:22:29.638Z,22.02
2022-11-19T20:24:57.263Z,26.00
2022-11-19T20:27:25.028Z,22.05
2022-11-19T20:29:54.008Z,23.45
2022-11-19T20:32:26.664Z,24.23
2022-11-19T20:34:56.552Z,25.52
2022-11-19T20:37:24.390Z,20.40
2022-11-19T20:39:51.832Z,18.63
2022-11-19T20:42:38.165Z,23.52
2022-11-19T20:45:12.187Z,20.38
2022-11-19T20:47:39.792Z,22.25
2022-11-19T20:50:07.892Z,18.35
2022-11-19T20:52:35.607Z,21.83
2022-11-19T20:55:10.240Z,18.23
2022-11-19T20:57:38.800Z,22.75
2022-11-19T21:00:08.206Z,23.13
2022-11-19T21:02:39.877Z,21.42
2022-11-19T21:05:08.696Z,19.42
2022-11-19T21:07:38.462Z,21.60
2022-11-19T21:10:08.126Z,25.10
2022-11-19T21:12:35.852Z,24.33
2022-11-19T21:15:17.236Z,29.08
2022-11-19T21:17:56.061Z,36.30
2022-11-19T21:20:26.422Z,38.40
2022-11-19T21:22:57.415Z,64.97
2022-11-19T21:25:31.450Z,44.72
2022-11-19T21:28:01.504Z,43.80
2022-11-19T21:30:29.989Z,37.20
2022-11-19T21:32:58.250Z,34.45
2022-11-19T21:35:40.256Z,31.73
2022-11-19T21:38:14.142Z,26.75
2022-11-19T21:40:45.467Z,24.50
2022-11-19T21:43:14.247Z,30.88
2022-11-19T21:45:42.050Z,34.13
2022-11-19T21:48:09.533Z,23.33
2022-11-19T21:50:41.200Z,20.98
2022-11-19T21:53:09.969Z,26.70
2022-11-19T21:55:38.008Z,33.42
2022-11-19T21:58:06.634Z,32.42
2022-11-19T22:00:34.679Z,33.90
2022-11-19T22:03:02.406Z,27.23
2022-11-19T22:05:30.116Z,25.77
2022-11-19T22:08:01.233Z,24.00
2022-11-19T22:10:29.862Z,28.17
2022-11-19T22:13:00.252Z,20.00
2022-11-19T22:15:28.232Z,28.75
2022-11-19T22:17:55.925Z,21.42
2022-11-19T22:20:25.177Z,24.02
2022-11-19T22:22:58.161Z,26.55
2022-11-19T22:25:26.088Z,27.38
2022-11-19T22:27:56.468Z,23.83
2022-11-19T22:30:24.286Z,29.58
2022-11-19T22:32:53.798Z,22.13
2022-11-19T22:35:27.129Z,21.73
2022-11-19T22:37:54.586Z,29.48
2022-11-19T22:40:25.601Z,30.70
2022-11-19T22:42:56.982Z,24.75
2022-11-19T22:45:30.716Z,22.35
2022-11-19T22:48:03.012Z,27.25
2022-11-19T22:50:32.999Z,24.67
2022-11-19T22:53:10.512Z,27.73
2022-11-19T22:55:44.443Z,23.83
2022-11-19T22:58:18.100Z,22.80
2022-11-19T23:00:48.430Z,24.52
2022-11-19T23:03:16.934Z,23.52
2022-11-19T23:05:55.324Z,31.77
2022-11-19T23:08:24.606Z,21.33
2022-11-19T23:11:04.316Z,25.20
2022-11-19T23:13:34.662Z,17.15
2022-11-19T23:16:19.813Z,25.45
2022-11-19T23:18:52.285Z,22.27
2022-11-19T23:21:26.579Z,24.02
2022-11-19T23:23:58.335Z,17.42
2022-11-19T23:26:31.946Z,18.83
2022-11-19T23:29:00.755Z,21.15
2022-11-19T23:31:39.385Z,18.70
2022-11-19T23:34:11.502Z,27.90
2022-11-19T23:36:40.588Z,17.70
2022-11-19T23:39:15.842Z,25.42
2022-11-19T23:41:49.234Z,17.80
2022-11-19T23:44:20.149Z,25.48
2022-11-19T23:46:47.876Z,21.70
2022-11-19T23:49:17.309Z,20.05
2022-11-19T23:51:45.128Z,23.33
2022-11-19T23:54:13.947Z,16.70
2022-11-19T23:56:41.730Z,15.10
2022-11-19T23:59:09.337Z,18.48
